Time;durP1;ratioP1;P1;durP2;ratioP2;P2;SDS_P1;SDS_P2;PMS_P1;PMS_P2;Temp;Humidity;BMP_temperature;BMP_pressure;BME280_temperature;BME280_humidity;BME280_pressure;Samples;Min_cycle;Max_cycle;Signal;HPM_P1;HPM_P2
2023/09/19 00:01:15;;;;;;;;;;;;;;;23.18;42.80;99200.56;5074104;28;20368;-75
2023/09/19 00:03:41;;;;;;;;;;;;;;;23.16;42.89;99194.59;5089348;28;19923;-75
2023/09/19 00:06:07;;;;;;;;;;;;;;;23.15;42.78;99194.78;5107008;28;19916;-75
2023/09/19 00:08:33;;;;;;;;;;;;;;;23.10;42.71;99195.34;5107260;28;20299;-75
2023/09/19 00:11:05;;;;;;;;;;;;;;;23.08;43.08;99186.72;5107073;28;19921;-75
2023/09/19 00:13:30;;;;;;;;;;;;;;;23.05;42.88;99185.22;5074666;28;19924;-75
2023/09/19 00:15:56;;;;;;;;;;;;;;;23.03;43.08;99184.59;5090181;28;19917;-75
2023/09/19 00:18:22;;;;;;;;;;;;;;;23.00;42.86;99184.97;5106891;28;19990;-76
2023/09/19 00:20:51;;;;;;;;;;;;;;;22.99;42.84;99185.16;5072678;28;20426;-75
2023/09/19 00:23:16;;;;;;;;;;;;;;;22.95;42.94;99182.84;5106336;28;19917;-75
2023/09/19 00:25:42;;;;;;;;;;;;;;;22.92;43.02;99185.88;5107059;28;19921;-74
2023/09/19 00:28:07;;;;;;;;;;;;;;;22.91;42.73;99189.59;5072718;28;20086;-75
2023/09/19 00:30:33;;;;;;;;;;;;;;;22.89;42.83;99185.44;5072640;28;19923;-75
2023/09/19 00:32:58;;;;;;;;;;;;;;;22.86;43.11;99188.47;5089436;28;20010;-75
2023/09/19 00:35:23;;;;;;;;;;;;;;;22.84;42.96;99188.66;5106734;28;19946;-75
2023/09/19 00:37:49;;;;;;;;;;;;;;;22.81;42.98;99189.03;5106781;28;19966;-75
2023/09/19 00:40:17;;;;;;;;;;;;;;;22.80;42.89;99187.38;5106649;28;19917;-75
2023/09/19 00:42:42;;;;;;;;;;;;;;;22.78;42.96;99192.06;5072496;28;19923;-75
2023/09/19 00:45:09;;;;;;;;;;;;;;;22.76;42.89;99186.91;5074026;28;19921;-75
2023/09/19 00:47:35;;;;;;;;;;;;;;;22.78;42.80;99184.06;5105977;28;19923;-76
2023/09/19 00:50:00;;;;;;;;;;;;;;;22.78;43.01;99178.75;5106455;28;19917;-75
2023/09/19 00:52:25;;;;;;;;;;;;;;;22.77;42.88;99177.09;5090646;28;19966;-75
2023/09/19 00:54:52;;;;;;;;;;;;;;;22.77;42.99;99183.25;5106761;28;19924;-75
2023/09/19 00:57:19;;;;;;;;;;;;;;;22.78;42.89;99178.75;5089006;28;19917;-75
2023/09/19 00:59:44;;;;;;;;;;;;;;;22.76;42.83;99175.47;5105821;28;20379;-75
2023/09/19 01:02:10;;;;;;;;;;;;;;;22.76;42.91;99180.78;5073320;28;19917;-75
2023/09/19 01:04:36;;;;;;;;;;;;;;;22.76;42.86;99184.25;5105862;28;19960;-75
2023/09/19 01:07:01;;;;;;;;;;;;;;;22.76;42.82;99180.78;5089054;28;19934;-75
2023/09/19 01:09:26;;;;;;;;;;;;;;;22.75;42.98;99177.28;5073597;28;20006;-76
2023/09/19 01:11:53;;;;;;;;;;;;;;;22.76;43.05;99173.63;5073412;28;20345;-75
2023/09/19 01:14:37;;;;;;;;;;;;;;;22.75;43.07;99184.44;5088276;28;19916;-74
2023/09/19 01:17:19;;;;;;;;;;;;;;;22.74;42.83;99182.81;5073389;28;19916;-75
2023/09/19 01:20:04;;;;;;;;;;;;;;;22.73;42.99;99178.50;5106132;28;20395;-75
2023/09/19 01:22:33;;;;;;;;;;;;;;;22.70;43.18;99179.66;5073154;28;19916;-75
2023/09/19 01:24:58;;;;;;;;;;;;;;;22.68;42.89;99178.22;5088385;28;19946;-75
2023/09/19 01:27:43;;;;;;;;;;;;;;;22.67;43.15;99174.72;5072822;28;19922;-75
2023/09/19 01:30:08;;;;;;;;;;;;;;;22.65;43.02;99171.44;5073015;28;19916;-75
2023/09/19 01:32:34;;;;;;;;;;;;;;;22.63;43.37;99172.59;5073147;28;19920;-75
2023/09/19 01:35:03;;;;;;;;;;;;;;;22.61;43.21;99174.63;5105341;28;19916;-74
2023/09/19 01:37:29;;;;;;;;;;;;;;;22.58;43.12;99168.69;5104498;28;19923;-76
2023/09/19 01:39:55;;;;;;;;;;;;;;;22.57;43.16;99159.03;5105684;28;19917;-75
2023/09/19 01:42:30;;;;;;;;;;;;;;;22.55;43.20;99161.06;5105296;28;20014;-75
2023/09/19 01:45:07;;;;;;;;;;;;;;;22.54;43.35;99159.41;5071064;28;19933;-75
2023/09/19 01:47:38;;;;;;;;;;;;;;;22.52;43.62;99158.78;5071792;28;20315;-75
2023/09/19 01:50:06;;;;;;;;;;;;;;;22.52;43.73;99164.09;5088223;28;19963;-75
2023/09/19 01:52:33;;;;;;;;;;;;;;;22.50;43.58;99160.81;5071993;28;20417;-73
2023/09/19 01:55:04;;;;;;;;;;;;;;;22.50;43.89;99162.63;5104796;28;19990;-74
2023/09/19 01:57:30;;;;;;;;;;;;;;;22.49;43.75;99151.16;5088033;28;20398;-73
2023/09/19 02:00:06;;;;;;;;;;;;;;;22.48;43.73;99154.81;5087994;28;19917;-74
2023/09/19 02:02:38;;;;;;;;;;;;;;;22.47;43.96;99157.66;5087752;28;20397;-72
2023/09/19 02:05:04;;;;;;;;;;;;;;;22.46;44.11;99150.72;5088887;28;19917;-72
2023/09/19 02:07:31;;;;;;;;;;;;;;;22.45;44.16;99151.72;5105326;28;20384;-73
2023/09/19 02:09:57;;;;;;;;;;;;;;;22.44;44.13;99148.25;5072937;28;20422;-72
2023/09/19 02:12:22;;;;;;;;;;;;;;;22.46;44.13;99153.38;5105293;28;19920;-72
2023/09/19 02:14:48;;;;;;;;;;;;;;;22.45;44.16;99149.88;5105014;28;19917;-73
2023/09/19 02:17:13;;;;;;;;;;;;;;;22.46;44.05;99148.06;5088059;28;19951;-73
2023/09/19 02:19:39;;;;;;;;;;;;;;;22.47;44.05;99147.03;5104910;28;19973;-73
2023/09/19 02:22:09;;;;;;;;;;;;;;;22.46;44.26;99146.22;5105731;28;19917;-73
2023/09/19 02:24:35;;;;;;;;;;;;;;;22.45;43.98;99139.22;5072586;28;19917;-73
2023/09/19 02:27:04;;;;;;;;;;;;;;;22.47;44.25;99142.56;5076025;28;20070;-73
2023/09/19 02:29:29;;;;;;;;;;;;;;;22.47;44.08;99147.03;5108286;28;19959;-73
2023/09/19 02:31:55;;;;;;;;;;;;;;;22.47;44.44;99144.38;5075376;28;20013;-75
2023/09/19 02:34:21;;;;;;;;;;;;;;;22.47;44.45;99139.03;5057171;28;19924;-73
2023/09/19 02:36:46;;;;;;;;;;;;;;;22.44;44.51;99140.25;5071630;28;19917;-73
2023/09/19 02:39:12;;;;;;;;;;;;;;;22.43;44.34;99137.78;5071987;28;19924;-73
2023/09/19 02:41:38;;;;;;;;;;;;;;;22.43;44.45;99137.78;5054874;28;19956;-73
2023/09/19 02:44:07;;;;;;;;;;;;;;;22.42;44.64;99141.44;5055917;28;19924;-73
2023/09/19 02:46:33;;;;;;;;;;;;;;;22.39;44.61;99129.31;5071009;28;20419;-73
2023/09/19 02:48:58;;;;;;;;;;;;;;;22.37;44.34;99137.47;5055856;28;19917;-73
2023/09/19 02:51:23;;;;;;;;;;;;;;;22.35;44.44;99133.38;5056201;28;19920;-73
2023/09/19 02:53:52;;;;;;;;;;;;;;;22.34;44.51;99131.72;5054373;28;20030;-73
2023/09/19 02:56:18;;;;;;;;;;;;;;;22.32;44.70;99126.59;5054811;28;19924;-73
2023/09/19 02:58:43;;;;;;;;;;;;;;;22.31;44.88;99126.75;5054786;28;19970;-74
2023/09/19 03:01:12;;;;;;;;;;;;;;;22.29;44.68;99126.09;5055995;28;19921;-73
2023/09/19 03:03:38;;;;;;;;;;;;;;;22.28;44.98;99122.63;5054988;28;19964;-74
2023/09/19 03:06:05;;;;;;;;;;;;;;;22.27;44.83;99120.16;5054457;28;20376;-73
2023/09/19 03:08:31;;;;;;;;;;;;;;;22.26;45.05;99121.16;5054830;28;19943;-73
2023/09/19 03:10:56;;;;;;;;;;;;;;;22.24;45.08;99121.31;5054448;28;20309;-73
2023/09/19 03:13:21;;;;;;;;;;;;;;;22.22;44.96;99116.19;5054286;28;19920;-73
2023/09/19 03:15:49;;;;;;;;;;;;;;;22.22;45.01;99105.56;5056042;28;19949;-73
2023/09/19 03:18:14;;;;;;;;;;;;;;;22.20;45.10;99115.56;5054408;28;19917;-74
2023/09/19 03:20:39;;;;;;;;;;;;;;;22.20;45.24;99109.41;5055068;28;19917;-73
2023/09/19 03:23:06;;;;;;;;;;;;;;;22.20;45.35;99112.91;5054343;28;20319;-73
2023/09/19 03:25:34;;;;;;;;;;;;;;;22.17;45.24;99110.59;5055223;28;20415;-73
2023/09/19 03:27:59;;;;;;;;;;;;;;;22.17;45.19;99110.59;5054479;28;19921;-73
2023/09/19 03:30:26;;;;;;;;;;;;;;;22.17;45.19;99109.75;5055413;28;19971;-73
2023/09/19 03:32:51;;;;;;;;;;;;;;;22.17;45.17;99115.91;5054114;28;19917;-73
2023/09/19 03:35:17;;;;;;;;;;;;;;;22.17;45.10;99115.91;5053969;28;20418;-74
2023/09/19 03:37:42;;;;;;;;;;;;;;;22.18;45.31;99120.22;5053515;28;19952;-74
2023/09/19 03:40:10;;;;;;;;;;;;;;;22.30;46.63;99117.16;5055131;28;19916;-73
2023/09/19 03:42:37;;;;;;;;;;;;;;;22.48;47.38;99120.25;5057957;28;19917;-75
2023/09/19 03:45:02;;;;;;;;;;;;;;;22.63;46.66;99116.72;5062543;28;19920;-75
2023/09/19 03:47:28;;;;;;;;;;;;;;;22.74;46.21;99127.75;5059915;28;20003;-73
2023/09/19 03:49:54;;;;;;;;;;;;;;;22.84;45.92;99124.78;5068686;28;19916;-73
2023/09/19 03:52:19;;;;;;;;;;;;;;;22.93;45.64;99131.66;5082656;28;19970;-73
2023/09/19 03:54:44;;;;;;;;;;;;;;;23.02;45.33;99123.53;5079595;28;19916;-76
2023/09/19 03:57:10;;;;;;;;;;;;;;;23.11;45.21;99131.25;5078895;28;19916;-75
2023/09/19 03:59:35;;;;;;;;;;;;;;;23.14;45.03;99134.56;5076746;28;19920;-77
2023/09/19 04:02:01;;;;;;;;;;;;;;;23.09;45.95;99133.28;5075845;28;19917;-78
2023/09/19 04:04:29;;;;;;;;;;;;;;;23.08;45.66;99128.16;5076999;28;20018;-76
2023/09/19 04:06:54;;;;;;;;;;;;;;;23.11;45.10;99135.75;5076948;28;19917;-80
2023/09/19 04:09:19;;;;;;;;;;;;;;;23.45;44.20;99137.75;5074291;28;19966;-79
2023/09/19 04:11:45;;;;;;;;;;;;;;;23.90;43.61;99140.19;5074220;28;19956;-84
2023/09/19 04:14:10;;;;;;;;;;;;;;;24.06;41.89;99144.41;5074128;28;19966;-81
2023/09/19 04:16:35;;;;;;;;;;;;;;;24.28;41.12;99142.50;5075549;28;19916;-80
2023/09/19 04:19:01;;;;;;;;;;;;;;;24.62;40.21;99148.03;5074652;28;20438;-83
2023/09/19 04:21:28;;;;;;;;;;;;;;;25.01;39.25;99142.03;5073446;28;19948;-73
2023/09/19 04:23:53;;;;;;;;;;;;;;;25.48;38.39;99146.69;5073010;28;19963;-73
2023/09/19 04:26:19;;;;;;;;;;;;;;;25.88;37.25;99141.34;5073227;28;19955;-71
2023/09/19 04:28:44;;;;;;;;;;;;;;;26.36;36.23;99139.25;5073090;28;20350;-72
2023/09/19 04:31:11;;;;;;;;;;;;;;;26.83;35.52;99143.63;5073045;28;19917;-72
2023/09/19 04:33:37;;;;;;;;;;;;;;;27.34;34.77;99144.63;5072576;28;19916;-73
2023/09/19 04:36:03;;;;;;;;;;;;;;;27.80;33.78;99148.84;5073048;28;20369;-72
2023/09/19 04:38:29;;;;;;;;;;;;;;;28.30;32.88;99140.72;5072787;28;19916;-73
2023/09/19 04:40:58;;;;;;;;;;;;;;;28.81;31.96;99133.34;5056090;28;20026;-72
2023/09/19 04:43:24;;;;;;;;;;;;;;;29.16;31.39;99132.66;5072991;28;19940;-72
2023/09/19 04:45:50;;;;;;;;;;;;;;;29.56;30.73;99134.78;5055778;28;20406;-72
2023/09/19 04:48:16;;;;;;;;;;;;;;;29.99;29.74;99132.03;5071619;28;19916;-72
2023/09/19 04:50:41;;;;;;;;;;;;;;;30.51;29.24;99147.47;5072817;28;19920;-73
2023/09/19 04:53:07;;;;;;;;;;;;;;;30.82;28.68;99136.22;5055244;28;20447;-71
2023/09/19 04:55:32;;;;;;;;;;;;;;;31.22;27.96;99142.66;5055572;28;19917;-72
2023/09/19 04:57:58;;;;;;;;;;;;;;;31.60;27.46;99145.75;5072280;28;19920;-72
2023/09/19 05:00:24;;;;;;;;;;;;;;;31.95;26.96;99145.47;5072306;28;19924;-73
2023/09/19 05:02:50;;;;;;;;;;;;;;;32.21;26.55;99148.56;5055692;28;19970;-73
2023/09/19 05:05:19;;;;;;;;;;;;;;;32.51;26.38;99152.72;5055656;28;19923;-73
2023/09/19 05:07:44;;;;;;;;;;;;;;;32.65;25.98;99140.50;5072130;28;19922;-75
2023/09/19 05:10:11;;;;;;;;;;;;;;;32.09;27.11;99146.78;5055285;28;20011;-76
2023/09/19 05:12:36;;;;;;;;;;;;;;;31.74;27.70;99141.66;5072293;28;19927;-74
2023/09/19 05:15:03;;;;;;;;;;;;;;;31.47;28.05;99142.28;5072303;28;19916;-74
2023/09/19 05:17:29;;;;;;;;;;;;;;;32.18;27.25;99143.66;5055394;28;19925;-75
2023/09/19 05:19:54;;;;;;;;;;;;;;;32.68;26.39;99148.09;5055418;28;19916;-74
2023/09/19 05:22:19;;;;;;;;;;;;;;;33.10;25.70;99144.78;5071976;28;19916;-73
2023/09/19 05:24:47;;;;;;;;;;;;;;;33.40;25.50;99137.22;5055019;28;19916;-75
2023/09/19 05:27:13;;;;;;;;;;;;;;;33.82;25.06;99136.50;5071851;28;19920;-75
2023/09/19 05:29:40;;;;;;;;;;;;;;;34.20;24.05;99132.66;5072117;28;19916;-74
2023/09/19 05:32:05;;;;;;;;;;;;;;;34.55;23.79;99139.34;5055052;28;20461;-73
2023/09/19 05:34:30;;;;;;;;;;;;;;;34.87;23.91;99137.59;5071865;28;19956;-80
2023/09/19 05:36:56;;;;;;;;;;;;;;;35.23;23.85;99133.03;5079802;28;19943;-76
2023/09/19 05:39:22;;;;;;;;;;;;;;;35.44;23.36;99131.19;5071788;28;19920;-75
2023/09/19 05:41:48;;;;;;;;;;;;;;;35.81;22.92;99127.38;5073344;28;19942;-79
2023/09/19 05:44:14;;;;;;;;;;;;;;;35.96;22.58;99136.56;5072670;28;19924;-77
2023/09/19 05:46:39;;;;;;;;;;;;;;;36.12;22.36;99131.91;5072670;28;19974;-76
2023/09/19 05:49:05;;;;;;;;;;;;;;;36.38;22.14;99132.69;5072820;28;20347;-76
2023/09/19 05:51:30;;;;;;;;;;;;;;;36.64;21.96;99141.56;5105532;28;19917;-77
2023/09/19 05:53:56;;;;;;;;;;;;;;;36.72;21.94;99135.53;5088228;28;19917;-75
2023/09/19 05:56:21;;;;;;;;;;;;;;;36.85;21.64;99130.59;5088561;28;20010;-75
2023/09/19 05:58:46;;;;;;;;;;;;;;;36.96;21.24;99134.03;5105508;28;19999;-76
2023/09/19 06:01:12;;;;;;;;;;;;;;;37.11;21.60;99126.59;5105302;28;19926;-79
2023/09/19 06:03:37;;;;;;;;;;;;;;;37.10;21.43;99121.44;5076856;28;20018;-78
2023/09/19 06:06:04;;;;;;;;;;;;;;;37.19;21.18;99127.88;5069450;28;19970;-77
2023/09/19 06:08:30;;;;;;;;;;;;;;;37.19;21.42;99129.81;5068775;28;19970;-79
2023/09/19 06:10:55;;;;;;;;;;;;;;;37.27;21.14;99127.34;5053142;28;19928;-77
2023/09/19 06:13:21;;;;;;;;;;;;;;;37.32;21.02;99131.09;5069355;28;20311;-77
2023/09/19 06:15:49;;;;;;;;;;;;;;;37.36;20.84;99127.53;5052968;28;19928;-78
2023/09/19 06:18:19;;;;;;;;;;;;;;;37.42;20.92;99122.88;5071965;28;20291;-76
2023/09/19 06:20:45;;;;;;;;;;;;;;;37.46;21.07;99126.63;5071587;28;19916;-78
2023/09/19 06:23:10;;;;;;;;;;;;;;;37.51;20.77;99129.28;5053883;28;19920;-74
2023/09/19 06:25:36;;;;;;;;;;;;;;;37.53;20.95;99132.56;5066269;28;19970;-75
2023/09/19 06:28:04;;;;;;;;;;;;;;;37.57;21.08;99128.16;5071205;28;19924;-74
2023/09/19 06:30:30;;;;;;;;;;;;;;;37.58;21.22;99128.97;5087393;28;19928;-74
2023/09/19 06:32:59;;;;;;;;;;;;;;;37.59;20.63;99128.69;5104859;28;19924;-74
2023/09/19 06:35:29;;;;;;;;;;;;;;;37.63;20.64;99131.66;5104973;28;19917;-74
2023/09/19 06:37:57;;;;;;;;;;;;;;;37.63;20.84;99132.44;5072970;28;19916;-79
2023/09/19 06:40:22;;;;;;;;;;;;;;;37.71;20.85;99127.53;5104272;28;19920;-75
2023/09/19 06:42:50;;;;;;;;;;;;;;;37.74;20.87;99132.41;5071292;28;20058;-81
2023/09/19 06:45:18;;;;;;;;;;;;;;;37.71;20.20;99125.59;5107994;28;19963;-81
2023/09/19 06:47:45;;;;;;;;;;;;;;;37.63;21.13;99123.47;5105218;28;19939;-80
2023/09/19 06:50:18;;;;;;;;;;;;;;;37.74;20.53;99127.75;5072202;28;19973;-87
2023/09/19 06:52:43;;;;;;;;;;;;;;;37.67;20.45;99127.28;5074374;28;19916;-84
2023/09/19 06:55:09;;;;;;;;;;;;;;;37.81;20.49;99130.13;5089825;28;19922;-85
2023/09/19 06:57:35;;;;;;;;;;;;;;;37.81;20.25;99120.06;5088963;28;19921;-84
2023/09/19 07:00:01;;;;;;;;;;;;;;;37.89;20.39;99124.09;5073124;28;20398;-77
2023/09/19 07:02:27;;;;;;;;;;;;;;;37.88;19.46;99125.16;5088658;28;19923;-84
2023/09/19 07:04:52;;;;;;;;;;;;;;;37.99;19.43;99128.59;5105187;28;20307;-81
2023/09/19 07:07:17;;;;;;;;;;;;;;;38.24;19.09;99123.97;5105699;28;19916;-83
2023/09/19 07:09:43;;;;;;;;;;;;;;;38.42;18.24;99122.41;5071883;28;19920;-80
2023/09/19 07:12:08;;;;;;;;;;;;;;;38.55;18.34;99119.75;5091177;28;19986;-80
2023/09/19 07:14:33;;;;;;;;;;;;;;;38.65;17.93;99112.56;5076074;28;19924;-83
2023/09/19 07:17:01;;;;;;;;;;;;;;;38.80;17.59;99119.75;5076279;28;19923;-79
2023/09/19 07:19:28;;;;;;;;;;;;;;;38.81;17.02;99110.44;5074620;28;19916;-83
2023/09/19 07:21:54;;;;;;;;;;;;;;;38.78;19.87;99111.03;5108599;28;19923;-80
2023/09/19 07:24:19;;;;;;;;;;;;;;;38.68;20.17;99114.72;5091979;28;19980;-82
2023/09/19 07:26:45;;;;;;;;;;;;;;;38.60;18.16;99113.41;5076180;28;19916;-83
2023/09/19 07:29:10;;;;;;;;;;;;;;;38.56;19.58;99112.41;5092631;28;19985;-85
2023/09/19 07:31:36;;;;;;;;;;;;;;;38.69;19.28;99105.44;5091930;28;19920;-81
2023/09/19 07:34:03;;;;;;;;;;;;;;;38.78;19.54;99103.66;5103605;28;19950;-84
2023/09/19 07:36:29;;;;;;;;;;;;;;;38.78;19.60;99117.31;5086496;28;19921;-84
2023/09/19 07:38:54;;;;;;;;;;;;;;;38.86;18.51;99113.09;5079778;28;20018;-86
2023/09/19 07:41:21;;;;;;;;;;;;;;;38.80;18.09;99104.19;5077608;28;19917;-83
2023/09/19 07:43:46;;;;;;;;;;;;;;;38.84;18.99;99105.22;5093472;28;20292;-88
2023/09/19 07:46:11;;;;;;;;;;;;;;;38.89;19.21;99104.34;5092868;28;19931;-85
2023/09/19 07:48:38;;;;;;;;;;;;;;;38.90;18.96;99101.31;5105779;28;19921;-83
2023/09/19 07:51:06;;;;;;;;;;;;;;;38.98;18.26;99099.00;5108947;28;20410;-88
2023/09/19 07:53:35;;;;;;;;;;;;;;;39.07;18.90;99089.88;5090666;28;19924;-82
2023/09/19 07:56:04;;;;;;;;;;;;;;;39.02;19.46;99084.47;5074964;28;19916;-81
2023/09/19 07:58:29;;;;;;;;;;;;;;;39.09;18.61;99081.38;5108352;28;20307;-83
2023/09/19 08:00:55;;;;;;;;;;;;;;;39.24;18.48;99077.59;5107925;28;19932;-82
2023/09/19 08:03:20;;;;;;;;;;;;;;;39.40;18.48;99078.94;5108519;28;19923;-82
2023/09/19 08:05:45;;;;;;;;;;;;;;;39.51;19.15;99076.84;5091721;28;19923;-85
2023/09/19 08:08:13;;;;;;;;;;;;;;;39.63;18.78;99076.38;5090838;28;19920;-79
2023/09/19 08:10:42;;;;;;;;;;;;;;;39.64;19.08;99080.75;5074990;28;19920;-76
2023/09/19 08:13:11;;;;;;;;;;;;;;;39.24;18.85;99075.69;5074396;28;19923;-78
2023/09/19 08:15:36;;;;;;;;;;;;;;;38.96;18.95;99074.75;5089549;28;20329;-81
2023/09/19 08:18:01;;;;;;;;;;;;;;;38.69;18.86;99078.16;5091278;28;19965;-79
2023/09/19 08:20:27;;;;;;;;;;;;;;;38.58;19.22;99072.00;5090301;28;19924;-82
2023/09/19 08:22:54;;;;;;;;;;;;;;;38.73;19.51;99068.28;5073411;28;19917;-79
2023/09/19 08:25:20;;;;;;;;;;;;;;;38.73;20.36;99065.56;5076441;28;19928;-84
2023/09/19 08:30:30;;;;;;;;;;;;;;;38.94;19.13;99066.06;5149642;23;19933;-92
2023/09/19 08:33:04;;;;;;;;;;;;;;;39.22;18.97;99066.16;5039781;28;20416;-85
2023/09/19 08:35:29;;;;;;;;;;;;;;;39.51;18.74;99074.13;5024789;28;19921;-81
2023/09/19 08:38:00;;;;;;;;;;;;;;;39.67;17.58;99061.03;5025318;28;20589;-84
2023/09/19 08:40:29;;;;;;;;;;;;;;;39.89;16.76;99065.78;5032481;28;19921;-80
2023/09/19 08:42:55;;;;;;;;;;;;;;;39.87;15.29;99048.88;5026271;28;19922;-83
2023/09/19 08:45:24;;;;;;;;;;;;;;;39.98;15.84;99061.25;5025903;28;19921;-82
2023/09/19 08:48:08;;;;;;;;;;;;;;;40.19;15.84;99051.84;5047176;28;19917;-82
2023/09/19 08:50:33;;;;;;;;;;;;;;;40.29;15.79;99048.88;5030930;28;19918;-81
2023/09/19 08:53:02;;;;;;;;;;;;;;;40.33;15.02;99047.16;4996723;28;20290;-80
2023/09/19 08:55:27;;;;;;;;;;;;;;;40.34;15.07;99048.75;4996629;28;19930;-81
2023/09/19 08:57:54;;;;;;;;;;;;;;;40.24;14.56;99038.84;4995691;28;19917;-79
2023/09/19 09:00:21;;;;;;;;;;;;;;;40.01;15.10;99034.41;5012874;28;19918;-80
2023/09/19 09:02:49;;;;;;;;;;;;;;;40.06;14.59;99029.66;4996630;28;20269;-79
2023/09/19 09:05:16;;;;;;;;;;;;;;;39.87;14.59;99032.50;5013332;28;20463;-81
2023/09/19 09:07:41;;;;;;;;;;;;;;;39.10;14.98;99027.63;4997690;28;19918;-83
2023/09/19 09:10:07;;;;;;;;;;;;;;;39.07;15.43;99029.00;4996512;28;20296;-80
2023/09/19 09:12:32;;;;;;;;;;;;;;;38.91;15.77;99021.06;5013252;28;19918;-81
2023/09/19 09:14:58;;;;;;;;;;;;;;;38.76;15.77;99025.94;5012891;28;20296;-84
2023/09/19 09:17:26;;;;;;;;;;;;;;;38.34;15.79;99025.72;4996757;28;19917;-79
2023/09/19 09:19:52;;;;;;;;;;;;;;;37.92;16.13;99017.22;5013310;28;20028;-80
2023/09/19 09:22:18;;;;;;;;;;;;;;;38.12;16.34;99015.38;5014311;28;20384;-85
2023/09/19 09:24:58;;;;;;;;;;;;;;;38.28;16.96;99008.63;4996267;28;20064;-82
2023/09/19 09:27:23;;;;;;;;;;;;;;;38.42;16.45;99008.69;5012579;28;19926;-84
2023/09/19 09:29:49;;;;;;;;;;;;;;;38.35;16.41;99019.16;5012614;28;19926;-85
2023/09/19 09:32:28;;;;;;;;;;;;;;;38.27;16.15;99007.00;5012935;28;20423;-85
2023/09/19 09:34:54;;;;;;;;;;;;;;;38.23;16.33;99003.25;4996516;28;20420;-81
2023/09/19 09:37:20;;;;;;;;;;;;;;;37.79;16.27;99005.13;5013087;28;19940;-82
2023/09/19 09:39:54;;;;;;;;;;;;;;;37.66;16.19;98998.44;4996406;28;20396;-84
2023/09/19 09:42:31;;;;;;;;;;;;;;;37.67;16.26;98996.53;4996436;28;20067;-82
2023/09/19 09:45:16;;;;;;;;;;;;;;;37.75;16.71;98997.81;4996724;28;19925;-84
2023/09/19 09:47:42;;;;;;;;;;;;;;;37.75;16.77;99000.53;5013117;28;19917;-85
2023/09/19 09:50:17;;;;;;;;;;;;;;;37.48;16.49;98983.66;4996832;28;19917;-84
2023/09/19 09:52:46;;;;;;;;;;;;;;;37.29;16.69;98988.22;4997157;28;19917;-85
2023/09/19 09:55:12;;;;;;;;;;;;;;;37.20;16.81;98992.66;4996232;28;19917;-81
2023/09/19 09:57:40;;;;;;;;;;;;;;;36.98;17.09;98987.69;4996334;28;20296;-83
2023/09/19 10:02:40;;;;;;;;;;;;;;;36.79;17.64;98982.13;5012705;28;19921;-83
2023/09/19 10:07:53;;;;;;;;;;;;;;;36.71;17.94;98987.03;5012972;28;20436;-83
2023/09/19 10:10:43;;;;;;;;;;;;;;;36.63;18.13;98974.06;4997497;28;20794;-82
2023/09/19 10:13:17;;;;;;;;;;;;;;;36.69;17.99;98977.53;5012580;28;19929;-80
2023/09/19 10:15:50;;;;;;;;;;;;;;;36.58;18.01;98974.09;5012585;28;20387;-80
2023/09/19 10:18:18;;;;;;;;;;;;;;;36.25;18.23;98962.91;5012369;28;19917;-82
2023/09/19 10:20:45;;;;;;;;;;;;;;;36.17;18.30;98966.19;4995418;28;19921;-80
2023/09/19 10:23:12;;;;;;;;;;;;;;;35.96;18.69;98960.03;5011857;28;19932;-80
2023/09/19 10:25:38;;;;;;;;;;;;;;;35.87;18.26;98957.09;5013184;28;20020;-81
2023/09/19 10:28:10;;;;;;;;;;;;;;;35.65;18.35;98960.13;5012256;28;19953;-80
2023/09/19 10:30:36;;;;;;;;;;;;;;;35.48;18.15;98955.84;5011414;28;20345;-79
2023/09/19 10:33:02;;;;;;;;;;;;;;;35.42;18.64;98962.34;4995373;28;19917;-80
2023/09/19 10:35:27;;;;;;;;;;;;;;;35.34;18.42;98957.50;5011378;28;19917;-80
2023/09/19 10:37:54;;;;;;;;;;;;;;;35.18;18.56;98961.31;4996011;28;19917;-79
2023/09/19 10:40:20;;;;;;;;;;;;;;;35.10;19.15;98949.91;4995427;28;19918;-79
2023/09/19 10:42:45;;;;;;;;;;;;;;;34.96;19.06;98954.28;4995720;28;20360;-78
2023/09/19 10:45:13;;;;;;;;;;;;;;;34.91;18.84;98948.84;5011577;28;19918;-80
2023/09/19 10:47:38;;;;;;;;;;;;;;;34.86;19.27;98946.16;5015706;28;19940;-81
2023/09/19 10:50:05;;;;;;;;;;;;;;;34.75;19.64;98943.44;5015956;28;20377;-80
2023/09/19 10:52:33;;;;;;;;;;;;;;;34.61;19.35;98934.19;5016016;28;19918;-79
2023/09/19 10:55:01;;;;;;;;;;;;;;;34.57;19.55;98935.81;5016520;28;19918;-79
2023/09/19 10:57:28;;;;;;;;;;;;;;;34.57;20.02;98922.25;4999268;28;20006;-80
2023/09/19 11:00:26;;;;;;;;;;;;;;;34.46;19.52;98926.88;5015424;28;19924;-80
2023/09/19 11:03:11;;;;;;;;;;;;;;;34.35;19.26;98920.63;5015274;28;19925;-80
2023/09/19 11:05:40;;;;;;;;;;;;;;;34.23;19.21;98915.44;5017966;28;19927;-79
2023/09/19 11:08:11;;;;;;;;;;;;;;;34.17;19.26;98913.78;5002024;28;19972;-82
2023/09/19 11:10:49;;;;;;;;;;;;;;;34.05;19.21;98910.53;5000592;28;19921;-80
2023/09/19 11:13:29;;;;;;;;;;;;;;;33.87;19.93;98909.94;5001679;28;19925;-84
2023/09/19 11:15:57;;;;;;;;;;;;;;;33.75;19.82;98898.53;5017165;28;19918;-83
2023/09/19 11:18:46;;;;;;;;;;;;;;;33.62;19.57;98899.81;5016774;28;20312;-84
2023/09/19 11:21:31;;;;;;;;;;;;;;;33.47;19.40;98902.44;5012991;28;19924;-81
2023/09/19 11:24:09;;;;;;;;;;;;;;;33.27;19.76;98898.56;5015099;28;19921;-82
2023/09/19 11:26:47;;;;;;;;;;;;;;;33.01;20.16;98897.56;5017105;28;19925;-82
2023/09/19 11:29:31;;;;;;;;;;;;;;;32.60;20.38;98894.53;4999847;28;20021;-82
2023/09/19 11:31:59;;;;;;;;;;;;;;;32.49;20.41;98890.13;5015338;28;20301;-79
2023/09/19 11:34:37;;;;;;;;;;;;;;;32.39;20.24;98885.44;5016422;28;19925;-81
2023/09/19 11:37:14;;;;;;;;;;;;;;;32.26;20.56;98879.38;5015084;28;20012;-81
2023/09/19 11:39:41;;;;;;;;;;;;;;;32.17;20.85;98875.50;5015015;28;20290;-80
2023/09/19 11:42:26;;;;;;;;;;;;;;;32.12;20.72;98877.34;4999053;28;19917;-78
2023/09/19 11:44:55;;;;;;;;;;;;;;;32.10;21.18;98869.50;5015871;28;20336;-79
2023/09/19 11:47:22;;;;;;;;;;;;;;;32.08;21.37;98863.50;5016174;28;19987;-81
2023/09/19 11:49:48;;;;;;;;;;;;;;;32.08;21.57;98853.53;5015814;28;19917;-80
2023/09/19 11:52:14;;;;;;;;;;;;;;;32.08;21.73;98852.69;5014110;28;20384;-84
2023/09/19 11:54:41;;;;;;;;;;;;;;;31.88;21.90;98854.13;4998424;28;20022;-83
2023/09/19 11:57:06;;;;;;;;;;;;;;;31.74;21.97;98842.91;4998408;28;19922;-81
2023/09/19 11:59:33;;;;;;;;;;;;;;;31.65;21.96;98835.53;4997858;28;20464;-84
2023/09/19 12:02:00;;;;;;;;;;;;;;;31.36;22.06;98835.72;5015588;28;19940;-78
2023/09/19 12:04:37;;;;;;;;;;;;;;;31.30;22.47;98828.63;4998068;28;20072;-82
2023/09/19 12:07:04;;;;;;;;;;;;;;;31.24;22.42;98821.53;5014114;28;20008;-79
2023/09/19 12:09:29;;;;;;;;;;;;;;;31.20;22.18;98818.50;5015643;28;19984;-81
2023/09/19 12:11:55;;;;;;;;;;;;;;;31.17;22.09;98824.41;5015613;28;20393;-80
2023/09/19 12:14:25;;;;;;;;;;;;;;;31.21;21.95;98822.84;4998132;28;19934;-82
2023/09/19 12:16:55;;;;;;;;;;;;;;;31.11;21.73;98815.44;5029580;28;19922;-83
2023/09/19 12:19:21;;;;;;;;;;;;;;;31.14;21.97;98819.53;5029622;28;19944;-82
2023/09/19 12:21:54;;;;;;;;;;;;;;;31.13;22.38;98818.69;5014616;28;19925;-82
2023/09/19 12:24:19;;;;;;;;;;;;;;;31.17;22.13;98814.44;5017478;28;19924;-82
2023/09/19 12:26:48;;;;;;;;;;;;;;;31.23;22.07;98807.22;5029759;28;19941;-82
2023/09/19 12:29:18;;;;;;;;;;;;;;;31.26;22.60;98804.00;5021231;28;19937;-83
2023/09/19 12:31:50;;;;;;;;;;;;;;;31.28;23.14;98801.91;5021503;28;20401;-84
2023/09/19 12:34:23;;;;;;;;;;;;;;;31.20;22.83;98795.06;5020708;28;19971;-82
2023/09/19 12:36:48;;;;;;;;;;;;;;;31.04;23.32;98801.31;5020963;28;19917;-84
2023/09/19 12:39:24;;;;;;;;;;;;;;;30.96;22.88;98802.59;5018390;28;20001;-83
2023/09/19 12:41:50;;;;;;;;;;;;;;;30.93;22.95;98797.66;5017816;28;19918;-83
2023/09/19 12:44:18;;;;;;;;;;;;;;;30.89;22.53;98801.09;4998670;28;19918;-81
2023/09/19 12:46:44;;;;;;;;;;;;;;;30.80;22.50;98801.50;5013772;28;19917;-84
2023/09/19 12:49:19;;;;;;;;;;;;;;;30.80;22.60;98798.81;5013448;28;19925;-83
2023/09/19 12:51:47;;;;;;;;;;;;;;;30.78;22.73;98795.56;4997402;28;20012;-81
2023/09/19 12:54:16;;;;;;;;;;;;;;;30.76;23.12;98797.69;5012822;28;19927;-83
2023/09/19 12:56:44;;;;;;;;;;;;;;;30.73;23.27;98800.88;5013238;28;20397;-81
2023/09/19 12:59:13;;;;;;;;;;;;;;;30.70;23.23;98797.88;5013193;28;19918;-81